sensor_id;sensor_type;location;lat;lon;timestamp;P1;durP1;ratioP1;P2;durP2;ratioP2
52798;SDS011;38667;42.872;74.622;2022-10-03T00:00:28;30.02;;;15.60;;
52798;SDS011;38667;42.872;74.622;2022-10-03T00:06:04;33.92;;;16.70;;
52798;SDS011;38667;42.872;74.622;2022-10-03T00:11:34;50.70;;;19.38;;
52798;SDS011;38667;42.872;74.622;2022-10-03T00:14:09;33.05;;;17.00;;
52798;SDS011;38667;42.872;74.622;2022-10-03T00:16:43;41.03;;;17.98;;
52798;SDS011;38667;42.872;74.622;2022-10-03T00:19:18;38.58;;;17.70;;
52798;SDS011;38667;42.872;74.622;2022-10-03T00:21:55;38.80;;;16.65;;
52798;SDS011;38667;42.872;74.622;2022-10-03T00:24:34;41.28;;;15.52;;
52798;SDS011;38667;42.872;74.622;2022-10-03T00:27:15;37.13;;;14.73;;
52798;SDS011;38667;42.872;74.622;2022-10-03T00:29:54;36.75;;;14.63;;
52798;SDS011;38667;42.872;74.622;2022-10-03T00:32:39;34.33;;;14.02;;
52798;SDS011;38667;42.872;74.622;2022-10-03T00:35:19;32.40;;;14.13;;
52798;SDS011;38667;42.872;74.622;2022-10-03T00:37:57;43.55;;;15.65;;
52798;SDS011;38667;42.872;74.622;2022-10-03T00:43:32;44.17;;;15.50;;
52798;SDS011;38667;42.872;74.622;2022-10-03T00:55:05;39.17;;;14.18;;
52798;SDS011;38667;42.872;74.622;2022-10-03T00:57:43;37.50;;;14.38;;
52798;SDS011;38667;42.872;74.622;2022-10-03T01:00:22;30.65;;;14.93;;
52798;SDS011;38667;42.872;74.622;2022-10-03T01:02:59;33.70;;;14.23;;
52798;SDS011;38667;42.872;74.622;2022-10-03T01:05:46;45.05;;;15.18;;
52798;SDS011;38667;42.872;74.622;2022-10-03T01:11:33;29.90;;;14.35;;
52798;SDS011;38667;42.872;74.622;2022-10-03T01:14:08;38.28;;;14.80;;
52798;SDS011;38667;42.872;74.622;2022-10-03T01:16:52;44.03;;;15.68;;
52798;SDS011;38667;42.872;74.622;2022-10-03T01:19:34;35.88;;;14.90;;
52798;SDS011;38667;42.872;74.622;2022-10-03T01:22:25;40.17;;;15.30;;
52798;SDS011;38667;42.872;74.622;2022-10-03T01:25:10;35.40;;;15.73;;
52798;SDS011;38667;42.872;74.622;2022-10-03T01:27:44;42.28;;;15.80;;
52798;SDS011;38667;42.872;74.622;2022-10-03T01:30:20;44.47;;;16.40;;
52798;SDS011;38667;42.872;74.622;2022-10-03T01:32:49;55.63;;;18.08;;
52798;SDS011;38667;42.872;74.622;2022-10-03T01:35:24;57.83;;;21.63;;
52798;SDS011;38667;42.872;74.622;2022-10-03T01:40:42;50.15;;;24.20;;
52798;SDS011;38667;42.872;74.622;2022-10-03T01:43:16;56.42;;;25.73;;
52798;SDS011;38667;42.872;74.622;2022-10-03T01:45:47;63.50;;;27.00;;
52798;SDS011;38667;42.872;74.622;2022-10-03T01:48:28;68.25;;;28.77;;
52798;SDS011;38667;42.872;74.622;2022-10-03T01:51:00;74.43;;;32.45;;
52798;SDS011;38667;42.872;74.622;2022-10-03T01:53:38;73.25;;;32.67;;
52798;SDS011;38667;42.872;74.622;2022-10-03T01:56:12;89.75;;;32.40;;
52798;SDS011;38667;42.872;74.622;2022-10-03T01:58:48;79.47;;;33.13;;
52798;SDS011;38667;42.872;74.622;2022-10-03T02:04:01;73.35;;;30.17;;
52798;SDS011;38667;42.872;74.622;2022-10-03T02:07:41;63.78;;;27.45;;
52798;SDS011;38667;42.872;74.622;2022-10-03T02:10:18;69.57;;;27.20;;
52798;SDS011;38667;42.872;74.622;2022-10-03T02:12:52;62.50;;;26.98;;
52798;SDS011;38667;42.872;74.622;2022-10-03T02:15:25;64.95;;;26.15;;
52798;SDS011;38667;42.872;74.622;2022-10-03T02:17:57;64.43;;;25.48;;
52798;SDS011;38667;42.872;74.622;2022-10-03T02:20:34;72.10;;;25.98;;
52798;SDS011;38667;42.872;74.622;2022-10-03T02:23:23;58.35;;;23.00;;
52798;SDS011;38667;42.872;74.622;2022-10-03T02:26:19;57.47;;;23.77;;
52798;SDS011;38667;42.872;74.622;2022-10-03T02:29:34;54.17;;;22.65;;
52798;SDS011;38667;42.872;74.622;2022-10-03T02:35:46;46.60;;;22.20;;
52798;SDS011;38667;42.872;74.622;2022-10-03T02:38:46;53.38;;;23.05;;
52798;SDS011;38667;42.872;74.622;2022-10-03T02:44:42;48.80;;;22.42;;
52798;SDS011;38667;42.872;74.622;2022-10-03T02:47:49;91.20;;;24.17;;
52798;SDS011;38667;42.872;74.622;2022-10-03T02:50:40;70.22;;;22.17;;
52798;SDS011;38667;42.872;74.622;2022-10-03T03:00:06;62.08;;;20.50;;
52798;SDS011;38667;42.872;74.622;2022-10-03T03:18:49;46.25;;;14.50;;
52798;SDS011;38667;42.872;74.622;2022-10-03T03:21:31;34.60;;;12.93;;
52798;SDS011;38667;42.872;74.622;2022-10-03T03:24:09;37.17;;;14.80;;
52798;SDS011;38667;42.872;74.622;2022-10-03T03:27:01;33.97;;;14.32;;
52798;SDS011;38667;42.872;74.622;2022-10-03T03:29:39;39.13;;;15.23;;
52798;SDS011;38667;42.872;74.622;2022-10-03T03:32:12;38.00;;;13.98;;
52798;SDS011;38667;42.872;74.622;2022-10-03T03:34:49;36.42;;;12.75;;
52798;SDS011;38667;42.872;74.622;2022-10-03T03:37:24;25.58;;;12.65;;
52798;SDS011;38667;42.872;74.622;2022-10-03T03:42:58;34.72;;;11.50;;
52798;SDS011;38667;42.872;74.622;2022-10-03T03:45:48;33.08;;;12.35;;
52798;SDS011;38667;42.872;74.622;2022-10-03T03:48:34;32.25;;;12.77;;
52798;SDS011;38667;42.872;74.622;2022-10-03T03:51:27;40.42;;;12.77;;
52798;SDS011;38667;42.872;74.622;2022-10-03T03:56:57;25.00;;;12.52;;
52798;SDS011;38667;42.872;74.622;2022-10-03T03:59:39;39.40;;;14.32;;
52798;SDS011;38667;42.872;74.622;2022-10-03T04:02:25;26.58;;;13.15;;
52798;SDS011;38667;42.872;74.622;2022-10-03T04:05:06;38.28;;;14.48;;
52798;SDS011;38667;42.872;74.622;2022-10-03T04:07:47;45.45;;;14.15;;
52798;SDS011;38667;42.872;74.622;2022-10-03T04:10:24;28.98;;;12.50;;
52798;SDS011;38667;42.872;74.622;2022-10-03T04:13:05;42.50;;;12.10;;
52798;SDS011;38667;42.872;74.622;2022-10-03T04:15:47;38.78;;;13.57;;
52798;SDS011;38667;42.872;74.622;2022-10-03T04:18:28;45.50;;;14.02;;
52798;SDS011;38667;42.872;74.622;2022-10-03T04:21:12;43.75;;;13.82;;
52798;SDS011;38667;42.872;74.622;2022-10-03T04:23:59;44.80;;;13.55;;
52798;SDS011;38667;42.872;74.622;2022-10-03T04:26:42;40.38;;;12.95;;
52798;SDS011;38667;42.872;74.622;2022-10-03T04:29:38;31.90;;;12.38;;
52798;SDS011;38667;42.872;74.622;2022-10-03T04:32:11;30.38;;;12.43;;
52798;SDS011;38667;42.872;74.622;2022-10-03T04:34:52;45.55;;;13.20;;
52798;SDS011;38667;42.872;74.622;2022-10-03T04:37:38;30.35;;;12.02;;
52798;SDS011;38667;42.872;74.622;2022-10-03T04:40:09;40.38;;;12.23;;
52798;SDS011;38667;42.872;74.622;2022-10-03T04:42:49;30.60;;;12.13;;
52798;SDS011;38667;42.872;74.622;2022-10-03T04:45:42;31.27;;;11.07;;
52798;SDS011;38667;42.872;74.622;2022-10-03T04:48:21;38.22;;;11.48;;
52798;SDS011;38667;42.872;74.622;2022-10-03T04:51:02;47.95;;;12.40;;
52798;SDS011;38667;42.872;74.622;2022-10-03T04:53:44;33.88;;;11.93;;
52798;SDS011;38667;42.872;74.622;2022-10-03T04:56:22;47.67;;;12.13;;
52798;SDS011;38667;42.872;74.622;2022-10-03T04:59:03;36.42;;;12.85;;
52798;SDS011;38667;42.872;74.622;2022-10-03T05:01:48;37.75;;;12.35;;
52798;SDS011;38667;42.872;74.622;2022-10-03T05:04:18;43.08;;;12.73;;
52798;SDS011;38667;42.872;74.622;2022-10-03T05:06:56;34.63;;;11.88;;
52798;SDS011;38667;42.872;74.622;2022-10-03T05:09:31;60.00;;;13.65;;
52798;SDS011;38667;42.872;74.622;2022-10-03T05:12:06;48.10;;;13.68;;
52798;SDS011;38667;42.872;74.622;2022-10-03T05:14:43;37.08;;;11.55;;
52798;SDS011;38667;42.872;74.622;2022-10-03T05:17:29;27.90;;;11.23;;
52798;SDS011;38667;42.872;74.622;2022-10-03T05:20:14;23.95;;;9.48;;
52798;SDS011;38667;42.872;74.622;2022-10-03T05:22:53;34.85;;;10.30;;
52798;SDS011;38667;42.872;74.622;2022-10-03T05:25:36;27.73;;;10.82;;
52798;SDS011;38667;42.872;74.622;2022-10-03T05:28:13;28.20;;;10.07;;
52798;SDS011;38667;42.872;74.622;2022-10-03T05:30:47;27.52;;;10.10;;
52798;SDS011;38667;42.872;74.622;2022-10-03T05:33:20;30.17;;;9.20;;
52798;SDS011;38667;42.872;74.622;2022-10-03T05:36:04;37.05;;;10.98;;
52798;SDS011;38667;42.872;74.622;2022-10-03T05:38:51;28.63;;;10.50;;
52798;SDS011;38667;42.872;74.622;2022-10-03T05:41:41;23.80;;;10.18;;
52798;SDS011;38667;42.872;74.622;2022-10-03T05:44:18;27.77;;;9.82;;
52798;SDS011;38667;42.872;74.622;2022-10-03T05:46:56;23.15;;;8.77;;
52798;SDS011;38667;42.872;74.622;2022-10-03T05:52:28;25.65;;;8.57;;
52798;SDS011;38667;42.872;74.622;2022-10-03T05:55:11;36.40;;;9.70;;
52798;SDS011;38667;42.872;74.622;2022-10-03T05:57:59;31.45;;;10.85;;
52798;SDS011;38667;42.872;74.622;2022-10-03T06:00:42;31.17;;;10.52;;
52798;SDS011;38667;42.872;74.622;2022-10-03T06:03:30;34.60;;;10.18;;
52798;SDS011;38667;42.872;74.622;2022-10-03T06:06:17;30.02;;;11.07;;
52798;SDS011;38667;42.872;74.622;2022-10-03T06:08:51;40.08;;;11.60;;
52798;SDS011;38667;42.872;74.622;2022-10-03T06:11:43;49.72;;;13.07;;
52798;SDS011;38667;42.872;74.622;2022-10-03T06:14:35;38.00;;;12.25;;
52798;SDS011;38667;42.872;74.622;2022-10-03T06:20:19;40.83;;;12.73;;
52798;SDS011;38667;42.872;74.622;2022-10-03T06:23:16;30.80;;;11.85;;
52798;SDS011;38667;42.872;74.622;2022-10-03T06:32:08;35.83;;;12.45;;
52798;SDS011;38667;42.872;74.622;2022-10-03T06:35:02;53.55;;;14.93;;
52798;SDS011;38667;42.872;74.622;2022-10-03T06:41:13;31.15;;;10.77;;
52798;SDS011;38667;42.872;74.622;2022-10-03T06:44:19;47.03;;;12.65;;
52798;SDS011;38667;42.872;74.622;2022-10-03T06:47:08;35.65;;;11.02;;
52798;SDS011;38667;42.872;74.622;2022-10-03T06:50:07;39.20;;;11.32;;
52798;SDS011;38667;42.872;74.622;2022-10-03T06:56:20;38.35;;;12.18;;
52798;SDS011;38667;42.872;74.622;2022-10-03T07:02:28;41.33;;;13.40;;
52798;SDS011;38667;42.872;74.622;2022-10-03T07:12:39;39.53;;;14.07;;
52798;SDS011;38667;42.872;74.622;2022-10-03T07:21:32;45.65;;;17.38;;
52798;SDS011;38667;42.872;74.622;2022-10-03T07:24:32;52.70;;;18.65;;
52798;SDS011;38667;42.872;74.622;2022-10-03T07:27:41;44.40;;;18.70;;
52798;SDS011;38667;42.872;74.622;2022-10-03T07:30:17;63.15;;;19.95;;
52798;SDS011;38667;42.872;74.622;2022-10-03T07:39:05;49.17;;;19.00;;
52798;SDS011;38667;42.872;74.622;2022-10-03T07:42:02;49.33;;;17.30;;
52798;SDS011;38667;42.872;74.622;2022-10-03T07:47:44;50.33;;;17.33;;
52798;SDS011;38667;42.872;74.622;2022-10-03T07:56:42;41.20;;;17.65;;
52798;SDS011;38667;42.872;74.622;2022-10-03T07:59:51;52.58;;;18.52;;
52798;SDS011;38667;42.872;74.622;2022-10-03T08:02:49;52.58;;;19.63;;
52798;SDS011;38667;42.872;74.622;2022-10-03T08:05:54;41.03;;;17.63;;
52798;SDS011;38667;42.872;74.622;2022-10-03T08:08:41;42.80;;;16.55;;
52798;SDS011;38667;42.872;74.622;2022-10-03T08:11:40;36.10;;;15.88;;
52798;SDS011;38667;42.872;74.622;2022-10-03T08:14:31;31.55;;;14.45;;
52798;SDS011;38667;42.872;74.622;2022-10-03T08:17:14;36.85;;;13.15;;
52798;SDS011;38667;42.872;74.622;2022-10-03T08:20:12;22.27;;;12.80;;
52798;SDS011;38667;42.872;74.622;2022-10-03T08:22:52;24.40;;;11.75;;
52798;SDS011;38667;42.872;74.622;2022-10-03T08:25:33;30.38;;;11.98;;
52798;SDS011;38667;42.872;74.622;2022-10-03T08:28:23;25.30;;;11.77;;
52798;SDS011;38667;42.872;74.622;2022-10-03T08:31:13;22.95;;;10.93;;
52798;SDS011;38667;42.872;74.622;2022-10-03T08:34:17;22.08;;;10.18;;
52798;SDS011;38667;42.872;74.622;2022-10-03T08:40:11;30.88;;;11.23;;
52798;SDS011;38667;42.872;74.622;2022-10-03T08:46:24;24.02;;;9.30;;
52798;SDS011;38667;42.872;74.622;2022-10-03T08:49:28;25.05;;;8.77;;
52798;SDS011;38667;42.872;74.622;2022-10-03T08:52:23;30.67;;;8.65;;
52798;SDS011;38667;42.872;74.622;2022-10-03T09:07:10;18.83;;;9.75;;
52798;SDS011;38667;42.872;74.622;2022-10-03T09:09:57;23.33;;;9.20;;
52798;SDS011;38667;42.872;74.622;2022-10-03T09:13:18;26.35;;;9.60;;
52798;SDS011;38667;42.872;74.622;2022-10-03T09:16:11;25.88;;;9.55;;
52798;SDS011;38667;42.872;74.622;2022-10-03T09:19:05;23.05;;;9.23;;
52798;SDS011;38667;42.872;74.622;2022-10-03T09:21:47;19.48;;;8.98;;
52798;SDS011;38667;42.872;74.622;2022-10-03T09:24:44;26.02;;;8.77;;
52798;SDS011;38667;42.872;74.622;2022-10-03T09:27:35;27.13;;;8.60;;
52798;SDS011;38667;42.872;74.622;2022-10-03T09:30:22;24.50;;;8.70;;
52798;SDS011;38667;42.872;74.622;2022-10-03T09:33:00;25.05;;;8.77;;
52798;SDS011;38667;42.872;74.622;2022-10-03T09:35:48;26.42;;;8.63;;
52798;SDS011;38667;42.872;74.622;2022-10-03T09:38:47;20.15;;;8.57;;
52798;SDS011;38667;42.872;74.622;2022-10-03T09:42:05;23.75;;;9.75;;
52798;SDS011;38667;42.872;74.622;2022-10-03T09:45:06;23.25;;;9.75;;
52798;SDS011;38667;42.872;74.622;2022-10-03T09:48:09;27.17;;;10.48;;
52798;SDS011;38667;42.872;74.622;2022-10-03T09:51:16;22.58;;;9.40;;
52798;SDS011;38667;42.872;74.622;2022-10-03T09:57:06;28.65;;;7.55;;
52798;SDS011;38667;42.872;74.622;2022-10-03T09:59:59;31.55;;;8.20;;
52798;SDS011;38667;42.872;74.622;2022-10-03T10:05:54;28.55;;;8.27;;
52798;SDS011;38667;42.872;74.622;2022-10-03T10:08:34;22.23;;;8.32;;
52798;SDS011;38667;42.872;74.622;2022-10-03T10:11:22;24.48;;;7.88;;
52798;SDS011;38667;42.872;74.622;2022-10-03T10:14:13;21.20;;;6.88;;
52798;SDS011;38667;42.872;74.622;2022-10-03T10:23:11;25.95;;;8.13;;
52798;SDS011;38667;42.872;74.622;2022-10-03T10:32:06;29.58;;;8.88;;
52798;SDS011;38667;42.872;74.622;2022-10-03T10:37:58;22.90;;;8.50;;
52798;SDS011;38667;42.872;74.622;2022-10-03T10:47:38;19.88;;;7.40;;
52798;SDS011;38667;42.872;74.622;2022-10-03T10:57:07;26.80;;;8.55;;
52798;SDS011;38667;42.872;74.622;2022-10-03T10:59:55;27.48;;;8.50;;
52798;SDS011;38667;42.872;74.622;2022-10-03T11:09:20;16.05;;;6.60;;
52798;SDS011;38667;42.872;74.622;2022-10-03T11:16:19;22.58;;;8.15;;
52798;SDS011;38667;42.872;74.622;2022-10-03T11:22:42;27.80;;;10.02;;
52798;SDS011;38667;42.872;74.622;2022-10-03T11:25:51;28.20;;;10.10;;
52798;SDS011;38667;42.872;74.622;2022-10-03T11:34:48;30.42;;;10.38;;
52798;SDS011;38667;42.872;74.622;2022-10-03T11:37:33;25.45;;;10.60;;
52798;SDS011;38667;42.872;74.622;2022-10-03T11:40:10;35.47;;;13.60;;
52798;SDS011;38667;42.872;74.622;2022-10-03T11:42:52;32.38;;;14.43;;
52798;SDS011;38667;42.872;74.622;2022-10-03T11:45:24;42.33;;;14.85;;
52798;SDS011;38667;42.872;74.622;2022-10-03T11:50:47;34.05;;;14.52;;
52798;SDS011;38667;42.872;74.622;2022-10-03T11:56:12;37.53;;;18.60;;
52798;SDS011;38667;42.872;74.622;2022-10-03T11:58:53;39.15;;;20.33;;
52798;SDS011;38667;42.872;74.622;2022-10-03T12:01:35;51.78;;;20.20;;
52798;SDS011;38667;42.872;74.622;2022-10-03T12:04:12;52.10;;;19.77;;
52798;SDS011;38667;42.872;74.622;2022-10-03T12:09:40;48.78;;;18.77;;
52798;SDS011;38667;42.872;74.622;2022-10-03T12:12:20;44.20;;;17.05;;
52798;SDS011;38667;42.872;74.622;2022-10-03T12:14:56;34.08;;;15.07;;
52798;SDS011;38667;42.872;74.622;2022-10-03T12:17:29;43.95;;;15.82;;
52798;SDS011;38667;42.872;74.622;2022-10-03T12:19:58;32.83;;;13.90;;
52798;SDS011;38667;42.872;74.622;2022-10-03T12:22:38;24.25;;;13.32;;
52798;SDS011;38667;42.872;74.622;2022-10-03T12:25:15;41.08;;;15.43;;
52798;SDS011;38667;42.872;74.622;2022-10-03T12:27:49;30.80;;;16.50;;
52798;SDS011;38667;42.872;74.622;2022-10-03T12:30:24;40.40;;;17.38;;
52798;SDS011;38667;42.872;74.622;2022-10-03T12:33:01;57.97;;;20.42;;
52798;SDS011;38667;42.872;74.622;2022-10-03T12:35:45;56.92;;;18.33;;
52798;SDS011;38667;42.872;74.622;2022-10-03T12:38:23;44.50;;;18.35;;
52798;SDS011;38667;42.872;74.622;2022-10-03T12:40:59;44.83;;;18.80;;
52798;SDS011;38667;42.872;74.622;2022-10-03T12:43:36;42.47;;;18.00;;
52798;SDS011;38667;42.872;74.622;2022-10-03T12:46:12;54.15;;;18.23;;
52798;SDS011;38667;42.872;74.622;2022-10-03T12:48:43;43.15;;;16.30;;
52798;SDS011;38667;42.872;74.622;2022-10-03T12:51:20;50.60;;;17.55;;
52798;SDS011;38667;42.872;74.622;2022-10-03T12:54:03;40.50;;;17.42;;
52798;SDS011;38667;42.872;74.622;2022-10-03T12:56:39;43.33;;;16.98;;
52798;SDS011;38667;42.872;74.622;2022-10-03T12:59:13;43.42;;;18.42;;
52798;SDS011;38667;42.872;74.622;2022-10-03T13:01:54;41.15;;;17.50;;
52798;SDS011;38667;42.872;74.622;2022-10-03T13:04:40;46.25;;;17.80;;
52798;SDS011;38667;42.872;74.622;2022-10-03T13:07:12;55.65;;;18.50;;
52798;SDS011;38667;42.872;74.622;2022-10-03T13:12:41;47.50;;;18.77;;
52798;SDS011;38667;42.872;74.622;2022-10-03T13:18:06;45.35;;;16.73;;
52798;SDS011;38667;42.872;74.622;2022-10-03T13:20:47;43.97;;;14.80;;
52798;SDS011;38667;42.872;74.622;2022-10-03T13:23:19;34.97;;;14.70;;
52798;SDS011;38667;42.872;74.622;2022-10-03T13:25:55;50.50;;;16.02;;
52798;SDS011;38667;42.872;74.622;2022-10-03T13:28:33;42.60;;;16.83;;
52798;SDS011;38667;42.872;74.622;2022-10-03T13:31:05;39.92;;;16.08;;
52798;SDS011;38667;42.872;74.622;2022-10-03T13:33:40;36.28;;;14.55;;
52798;SDS011;38667;42.872;74.622;2022-10-03T13:36:12;36.17;;;14.68;;
52798;SDS011;38667;42.872;74.622;2022-10-03T13:38:44;41.08;;;15.40;;
52798;SDS011;38667;42.872;74.622;2022-10-03T13:41:45;30.42;;;16.48;;
52798;SDS011;38667;42.872;74.622;2022-10-03T13:44:23;38.03;;;14.70;;
52798;SDS011;38667;42.872;74.622;2022-10-03T13:47:00;37.17;;;14.75;;
52798;SDS011;38667;42.872;74.622;2022-10-03T13:49:42;41.13;;;16.95;;
52798;SDS011;38667;42.872;74.622;2022-10-03T13:52:14;44.72;;;17.88;;
52798;SDS011;38667;42.872;74.622;2022-10-03T13:55:08;38.40;;;16.05;;
52798;SDS011;38667;42.872;74.622;2022-10-03T13:57:45;36.85;;;14.65;;
52798;SDS011;38667;42.872;74.622;2022-10-03T14:00:21;35.42;;;15.15;;
52798;SDS011;38667;42.872;74.622;2022-10-03T14:05:37;40.47;;;17.67;;
52798;SDS011;38667;42.872;74.622;2022-10-03T14:08:15;41.38;;;17.25;;
52798;SDS011;38667;42.872;74.622;2022-10-03T14:13:53;51.85;;;21.77;;
52798;SDS011;38667;42.872;74.622;2022-10-03T14:16:31;60.55;;;27.60;;
52798;SDS011;38667;42.872;74.622;2022-10-03T14:19:04;65.05;;;32.35;;
52798;SDS011;38667;42.872;74.622;2022-10-03T14:21:41;60.50;;;28.50;;
52798;SDS011;38667;42.872;74.622;2022-10-03T14:24:21;68.30;;;28.63;;
52798;SDS011;38667;42.872;74.622;2022-10-03T14:26:55;63.33;;;29.42;;
52798;SDS011;38667;42.872;74.622;2022-10-03T14:29:28;74.03;;;29.20;;
52798;SDS011;38667;42.872;74.622;2022-10-03T14:32:01;73.55;;;30.45;;
52798;SDS011;38667;42.872;74.622;2022-10-03T14:34:35;61.60;;;27.60;;
52798;SDS011;38667;42.872;74.622;2022-10-03T14:37:13;58.65;;;26.95;;
52798;SDS011;38667;42.872;74.622;2022-10-03T14:39:50;58.85;;;25.40;;
52798;SDS011;38667;42.872;74.622;2022-10-03T14:42:42;59.40;;;24.67;;
52798;SDS011;38667;42.872;74.622;2022-10-03T14:45:22;53.15;;;23.35;;
52798;SDS011;38667;42.872;74.622;2022-10-03T14:47:52;51.50;;;23.02;;
52798;SDS011;38667;42.872;74.622;2022-10-03T14:50:23;58.03;;;22.85;;
52798;SDS011;38667;42.872;74.622;2022-10-03T14:52:53;46.65;;;21.30;;
52798;SDS011;38667;42.872;74.622;2022-10-03T14:55:23;50.33;;;22.13;;
52798;SDS011;38667;42.872;74.622;2022-10-03T14:57:51;50.95;;;21.80;;
52798;SDS011;38667;42.872;74.622;2022-10-03T15:00:25;37.92;;;19.35;;
52798;SDS011;38667;42.872;74.622;2022-10-03T15:02:58;45.30;;;19.92;;
52798;SDS011;38667;42.872;74.622;2022-10-03T15:05:50;41.55;;;18.77;;
52798;SDS011;38667;42.872;74.622;2022-10-03T15:08:23;40.28;;;17.67;;
52798;SDS011;38667;42.872;74.622;2022-10-03T15:10:55;41.08;;;17.88;;
52798;SDS011;38667;42.872;74.622;2022-10-03T15:13:22;39.55;;;17.98;;
52798;SDS011;38667;42.872;74.622;2022-10-03T15:15:54;35.78;;;16.88;;
52798;SDS011;38667;42.872;74.622;2022-10-03T15:18:21;40.65;;;18.52;;
52798;SDS011;38667;42.872;74.622;2022-10-03T15:20:49;59.00;;;23.33;;
52798;SDS011;38667;42.872;74.622;2022-10-03T15:23:18;58.75;;;25.50;;
52798;SDS011;38667;42.872;74.622;2022-10-03T15:25:47;58.85;;;25.08;;
52798;SDS011;38667;42.872;74.622;2022-10-03T15:28:18;54.97;;;23.80;;
52798;SDS011;38667;42.872;74.622;2022-10-03T15:30:47;48.45;;;20.63;;
52798;SDS011;38667;42.872;74.622;2022-10-03T15:33:19;49.13;;;19.98;;
52798;SDS011;38667;42.872;74.622;2022-10-03T15:35:53;43.10;;;17.63;;
52798;SDS011;38667;42.872;74.622;2022-10-03T15:38:21;31.10;;;15.52;;
52798;SDS011;38667;42.872;74.622;2022-10-03T15:40:50;30.50;;;15.13;;
52798;SDS011;38667;42.872;74.622;2022-10-03T15:43:30;53.42;;;20.20;;
52798;SDS011;38667;42.872;74.622;2022-10-03T15:46:00;43.00;;;23.63;;
52798;SDS011;38667;42.872;74.622;2022-10-03T15:48:32;49.88;;;24.27;;
52798;SDS011;38667;42.872;74.622;2022-10-03T15:50:59;36.05;;;18.83;;
52798;SDS011;38667;42.872;74.622;2022-10-03T15:53:28;37.45;;;17.67;;
52798;SDS011;38667;42.872;74.622;2022-10-03T15:56:00;32.58;;;15.40;;
52798;SDS011;38667;42.872;74.622;2022-10-03T15:58:33;34.03;;;16.02;;
52798;SDS011;38667;42.872;74.622;2022-10-03T16:01:03;34.20;;;15.52;;
52798;SDS011;38667;42.872;74.622;2022-10-03T16:03:36;27.38;;;12.88;;
52798;SDS011;38667;42.872;74.622;2022-10-03T16:06:09;30.40;;;13.40;;
52798;SDS011;38667;42.872;74.622;2022-10-03T16:08:39;27.38;;;11.80;;
52798;SDS011;38667;42.872;74.622;2022-10-03T16:11:15;29.02;;;11.75;;
52798;SDS011;38667;42.872;74.622;2022-10-03T16:13:45;30.83;;;12.07;;
52798;SDS011;38667;42.872;74.622;2022-10-03T16:16:17;27.20;;;11.43;;
52798;SDS011;38667;42.872;74.622;2022-10-03T16:18:49;23.65;;;12.20;;
52798;SDS011;38667;42.872;74.622;2022-10-03T16:21:29;30.65;;;12.15;;
52798;SDS011;38667;42.872;74.622;2022-10-03T16:24:05;27.70;;;11.63;;
52798;SDS011;38667;42.872;74.622;2022-10-03T16:26:42;25.15;;;12.60;;
52798;SDS011;38667;42.872;74.622;2022-10-03T16:29:17;28.45;;;13.77;;
52798;SDS011;38667;42.872;74.622;2022-10-03T16:31:48;29.10;;;13.18;;
52798;SDS011;38667;42.872;74.622;2022-10-03T16:34:20;32.22;;;12.50;;
52798;SDS011;38667;42.872;74.622;2022-10-03T16:36:48;36.20;;;12.88;;
52798;SDS011;38667;42.872;74.622;2022-10-03T16:39:17;29.73;;;11.98;;
52798;SDS011;38667;42.872;74.622;2022-10-03T16:41:45;29.10;;;11.52;;
52798;SDS011;38667;42.872;74.622;2022-10-03T16:44:17;22.83;;;10.82;;
52798;SDS011;38667;42.872;74.622;2022-10-03T16:46:47;29.80;;;10.90;;
52798;SDS011;38667;42.872;74.622;2022-10-03T16:49:21;24.20;;;11.57;;
52798;SDS011;38667;42.872;74.622;2022-10-03T16:52:07;24.52;;;11.38;;
52798;SDS011;38667;42.872;74.622;2022-10-03T16:54:36;27.38;;;12.73;;
52798;SDS011;38667;42.872;74.622;2022-10-03T16:57:04;29.98;;;13.13;;
52798;SDS011;38667;42.872;74.622;2022-10-03T16:59:36;29.27;;;13.18;;
52798;SDS011;38667;42.872;74.622;2022-10-03T17:02:08;27.65;;;13.93;;
52798;SDS011;38667;42.872;74.622;2022-10-03T17:04:40;30.65;;;13.07;;
52798;SDS011;38667;42.872;74.622;2022-10-03T17:07:11;30.35;;;11.98;;
52798;SDS011;38667;42.872;74.622;2022-10-03T17:09:42;27.45;;;12.55;;
52798;SDS011;38667;42.872;74.622;2022-10-03T17:12:13;28.85;;;11.50;;
52798;SDS011;38667;42.872;74.622;2022-10-03T17:14:42;20.55;;;11.18;;
52798;SDS011;38667;42.872;74.622;2022-10-03T17:17:15;22.67;;;10.60;;
52798;SDS011;38667;42.872;74.622;2022-10-03T17:19:54;23.42;;;9.45;;
52798;SDS011;38667;42.872;74.622;2022-10-03T17:22:26;23.02;;;9.98;;
52798;SDS011;38667;42.872;74.622;2022-10-03T17:24:58;27.65;;;10.43;;
52798;SDS011;38667;42.872;74.622;2022-10-03T17:27:30;31.45;;;11.45;;
52798;SDS011;38667;42.872;74.622;2022-10-03T17:30:02;31.52;;;10.55;;
52798;SDS011;38667;42.872;74.622;2022-10-03T17:32:36;27.30;;;8.45;;
52798;SDS011;38667;42.872;74.622;2022-10-03T17:35:09;22.38;;;8.48;;
52798;SDS011;38667;42.872;74.622;2022-10-03T17:40:50;26.80;;;6.30;;
52798;SDS011;38667;42.872;74.622;2022-10-03T17:43:33;21.13;;;6.13;;
52798;SDS011;38667;42.872;74.622;2022-10-03T17:46:04;30.05;;;7.10;;
52798;SDS011;38667;42.872;74.622;2022-10-03T17:48:37;22.40;;;5.72;;
52798;SDS011;38667;42.872;74.622;2022-10-03T17:54:01;17.17;;;5.43;;
52798;SDS011;38667;42.872;74.622;2022-10-03T17:56:29;22.13;;;6.10;;
52798;SDS011;38667;42.872;74.622;2022-10-03T17:59:00;16.90;;;5.53;;
52798;SDS011;38667;42.872;74.622;2022-10-03T18:01:30;17.92;;;4.78;;
52798;SDS011;38667;42.872;74.622;2022-10-03T18:04:01;18.85;;;5.80;;
52798;SDS011;38667;42.872;74.622;2022-10-03T18:09:22;20.80;;;7.20;;
52798;SDS011;38667;42.872;74.622;2022-10-03T18:11:51;32.58;;;12.02;;
52798;SDS011;38667;42.872;74.622;2022-10-03T18:14:27;31.90;;;11.32;;
52798;SDS011;38667;42.872;74.622;2022-10-03T18:17:02;22.60;;;6.60;;
52798;SDS011;38667;42.872;74.622;2022-10-03T18:19:37;23.70;;;7.00;;
52798;SDS011;38667;42.872;74.622;2022-10-03T18:22:15;16.75;;;6.40;;
52798;SDS011;38667;42.872;74.622;2022-10-03T18:24:54;14.93;;;5.28;;
52798;SDS011;38667;42.872;74.622;2022-10-03T18:27:40;17.95;;;6.18;;
52798;SDS011;38667;42.872;74.622;2022-10-03T18:30:21;21.17;;;6.45;;
52798;SDS011;38667;42.872;74.622;2022-10-03T18:32:55;22.55;;;6.68;;
52798;SDS011;38667;42.872;74.622;2022-10-03T18:35:24;18.70;;;6.28;;
52798;SDS011;38667;42.872;74.622;2022-10-03T18:40:41;12.52;;;5.93;;
52798;SDS011;38667;42.872;74.622;2022-10-03T18:43:20;9.88;;;4.18;;
52798;SDS011;38667;42.872;74.622;2022-10-03T18:45:53;12.32;;;4.30;;
52798;SDS011;38667;42.872;74.622;2022-10-03T18:48:28;16.65;;;5.30;;
52798;SDS011;38667;42.872;74.622;2022-10-03T18:51:01;12.38;;;4.82;;
52798;SDS011;38667;42.872;74.622;2022-10-03T18:53:38;13.88;;;5.32;;
52798;SDS011;38667;42.872;74.622;2022-10-03T18:56:16;20.98;;;7.50;;
52798;SDS011;38667;42.872;74.622;2022-10-03T18:58:47;17.88;;;8.48;;
52798;SDS011;38667;42.872;74.622;2022-10-03T19:01:26;19.70;;;9.00;;
52798;SDS011;38667;42.872;74.622;2022-10-03T19:03:56;21.20;;;7.82;;